sensor_id;sensor_type;location;lat;lon;timestamp;temperature;humidity
17797;DHT22;55596;53.554;9.916;2022-07-29T00:00:30;13.00;99.90
17797;DHT22;55596;53.554;9.916;2022-07-29T00:05:26;13.40;99.90
17797;DHT22;55596;53.554;9.916;2022-07-29T00:07:53;13.00;99.90
17797;DHT22;55596;53.554;9.916;2022-07-29T00:10:21;13.40;99.90
17797;DHT22;55596;53.554;9.916;2022-07-29T00:12:48;13.00;99.90
17797;DHT22;55596;53.554;9.916;2022-07-29T00:15:15;13.00;99.90
17797;DHT22;55596;53.554;9.916;2022-07-29T00:17:42;13.00;99.90
17797;DHT22;55596;53.554;9.916;2022-07-29T00:20:10;12.90;99.90
17797;DHT22;55596;53.554;9.916;2022-07-29T00:22:37;12.90;99.90
17797;DHT22;55596;53.554;9.916;2022-07-29T00:25:05;12.90;99.90
17797;DHT22;55596;53.554;9.916;2022-07-29T00:27:34;12.80;99.90
17797;DHT22;55596;53.554;9.916;2022-07-29T00:30:00;12.90;99.90
17797;DHT22;55596;53.554;9.916;2022-07-29T00:32:27;12.60;99.90
17797;DHT22;55596;53.554;9.916;2022-07-29T00:34:54;14.70;99.90
17797;DHT22;55596;53.554;9.916;2022-07-29T00:37:38;12.60;99.90
17797;DHT22;55596;53.554;9.916;2022-07-29T00:40:07;12.70;99.90
17797;DHT22;55596;53.554;9.916;2022-07-29T00:42:42;12.80;99.90
17797;DHT22;55596;53.554;9.916;2022-07-29T00:45:10;12.70;99.90
17797;DHT22;55596;53.554;9.916;2022-07-29T00:47:37;12.70;99.90
17797;DHT22;55596;53.554;9.916;2022-07-29T00:50:05;12.70;99.90
17797;DHT22;55596;53.554;9.916;2022-07-29T00:52:33;12.70;99.90
17797;DHT22;55596;53.554;9.916;2022-07-29T00:55:00;12.80;99.90
17797;DHT22;55596;53.554;9.916;2022-07-29T00:57:27;12.90;99.90
17797;DHT22;55596;53.554;9.916;2022-07-29T00:59:55;12.70;99.90
17797;DHT22;55596;53.554;9.916;2022-07-29T01:02:22;12.70;99.90
17797;DHT22;55596;53.554;9.916;2022-07-29T01:04:49;12.80;99.90
17797;DHT22;55596;53.554;9.916;2022-07-29T01:07:16;12.90;99.90
17797;DHT22;55596;53.554;9.916;2022-07-29T01:09:44;12.60;99.90
17797;DHT22;55596;53.554;9.916;2022-07-29T01:12:13;12.70;99.90
17797;DHT22;55596;53.554;9.916;2022-07-29T01:14:41;12.80;99.90
17797;DHT22;55596;53.554;9.916;2022-07-29T01:17:12;12.80;99.90
17797;DHT22;55596;53.554;9.916;2022-07-29T01:19:56;12.80;99.90
17797;DHT22;55596;53.554;9.916;2022-07-29T01:25:48;12.80;99.90
17797;DHT22;55596;53.554;9.916;2022-07-29T01:28:51;13.10;99.90
17797;DHT22;55596;53.554;9.916;2022-07-29T01:31:28;13.00;99.90
17797;DHT22;55596;53.554;9.916;2022-07-29T01:34:01;13.00;99.90
17797;DHT22;55596;53.554;9.916;2022-07-29T01:36:32;13.00;99.90
17797;DHT22;55596;53.554;9.916;2022-07-29T01:39:05;12.90;99.90
17797;DHT22;55596;53.554;9.916;2022-07-29T01:41:34;13.20;99.90
17797;DHT22;55596;53.554;9.916;2022-07-29T01:44:11;13.00;99.90
17797;DHT22;55596;53.554;9.916;2022-07-29T01:46:44;13.30;99.90
17797;DHT22;55596;53.554;9.916;2022-07-29T01:49:15;13.20;99.90
17797;DHT22;55596;53.554;9.916;2022-07-29T01:51:46;13.30;99.90
17797;DHT22;55596;53.554;9.916;2022-07-29T01:54:18;13.20;99.90
17797;DHT22;55596;53.554;9.916;2022-07-29T01:56:48;13.30;99.90
17797;DHT22;55596;53.554;9.916;2022-07-29T01:59:18;13.50;99.90
17797;DHT22;55596;53.554;9.916;2022-07-29T02:01:47;13.20;99.90
17797;DHT22;55596;53.554;9.916;2022-07-29T02:04:15;13.20;99.90
17797;DHT22;55596;53.554;9.916;2022-07-29T02:06:44;13.30;99.90
17797;DHT22;55596;53.554;9.916;2022-07-29T02:09:13;13.40;99.90
17797;DHT22;55596;53.554;9.916;2022-07-29T02:11:47;13.30;99.90
17797;DHT22;55596;53.554;9.916;2022-07-29T02:14:17;13.30;99.90
17797;DHT22;55596;53.554;9.916;2022-07-29T02:16:45;13.40;99.90
17797;DHT22;55596;53.554;9.916;2022-07-29T02:19:15;13.40;99.90
17797;DHT22;55596;53.554;9.916;2022-07-29T02:21:43;13.30;99.90
17797;DHT22;55596;53.554;9.916;2022-07-29T02:24:12;13.50;99.90
17797;DHT22;55596;53.554;9.916;2022-07-29T02:26:41;13.20;99.90
17797;DHT22;55596;53.554;9.916;2022-07-29T02:29:10;13.30;99.90
17797;DHT22;55596;53.554;9.916;2022-07-29T02:31:41;13.30;99.90
17797;DHT22;55596;53.554;9.916;2022-07-29T02:34:10;13.30;99.90
17797;DHT22;55596;53.554;9.916;2022-07-29T02:36:37;13.30;99.90
17797;DHT22;55596;53.554;9.916;2022-07-29T02:39:05;13.40;99.90
17797;DHT22;55596;53.554;9.916;2022-07-29T02:41:37;13.40;99.90
17797;DHT22;55596;53.554;9.916;2022-07-29T02:44:10;13.40;99.90
17797;DHT22;55596;53.554;9.916;2022-07-29T02:46:45;13.30;99.90
17797;DHT22;55596;53.554;9.916;2022-07-29T02:49:16;13.50;99.90
17797;DHT22;55596;53.554;9.916;2022-07-29T02:51:46;13.50;99.90
17797;DHT22;55596;53.554;9.916;2022-07-29T02:54:22;13.40;99.90
17797;DHT22;55596;53.554;9.916;2022-07-29T02:56:51;13.50;99.90
17797;DHT22;55596;53.554;9.916;2022-07-29T02:59:24;13.30;99.90
17797;DHT22;55596;53.554;9.916;2022-07-29T03:01:55;13.50;99.90
17797;DHT22;55596;53.554;9.916;2022-07-29T03:04:25;13.40;99.90
17797;DHT22;55596;53.554;9.916;2022-07-29T03:06:55;13.40;99.90
17797;DHT22;55596;53.554;9.916;2022-07-29T03:09:25;13.40;99.90
17797;DHT22;55596;53.554;9.916;2022-07-29T03:11:54;13.50;99.90
17797;DHT22;55596;53.554;9.916;2022-07-29T03:14:22;13.50;99.90
17797;DHT22;55596;53.554;9.916;2022-07-29T03:16:50;13.20;99.90
17797;DHT22;55596;53.554;9.916;2022-07-29T03:19:19;13.10;99.90
17797;DHT22;55596;53.554;9.916;2022-07-29T03:21:47;13.00;99.90
17797;DHT22;55596;53.554;9.916;2022-07-29T03:24:25;13.10;99.90
17797;DHT22;55596;53.554;9.916;2022-07-29T03:26:52;13.30;99.90
17797;DHT22;55596;53.554;9.916;2022-07-29T03:29:21;13.30;99.90
17797;DHT22;55596;53.554;9.916;2022-07-29T03:31:48;13.30;99.90
17797;DHT22;55596;53.554;9.916;2022-07-29T03:34:15;13.50;99.90
17797;DHT22;55596;53.554;9.916;2022-07-29T03:36:43;13.40;99.90
17797;DHT22;55596;53.554;9.916;2022-07-29T03:39:12;13.50;99.90
17797;DHT22;55596;53.554;9.916;2022-07-29T03:41:42;13.50;99.90
17797;DHT22;55596;53.554;9.916;2022-07-29T03:44:11;13.70;99.90
17797;DHT22;55596;53.554;9.916;2022-07-29T03:46:39;13.30;99.90
17797;DHT22;55596;53.554;9.916;2022-07-29T03:49:06;13.60;99.90
17797;DHT22;55596;53.554;9.916;2022-07-29T03:51:35;13.60;99.90
17797;DHT22;55596;53.554;9.916;2022-07-29T03:54:05;13.70;99.90
17797;DHT22;55596;53.554;9.916;2022-07-29T03:56:35;13.60;99.90
17797;DHT22;55596;53.554;9.916;2022-07-29T03:59:04;13.60;99.90
17797;DHT22;55596;53.554;9.916;2022-07-29T04:01:32;13.70;99.90
17797;DHT22;55596;53.554;9.916;2022-07-29T04:04:00;13.80;99.90
17797;DHT22;55596;53.554;9.916;2022-07-29T04:06:28;13.90;99.90
17797;DHT22;55596;53.554;9.916;2022-07-29T04:08:55;13.90;99.90
17797;DHT22;55596;53.554;9.916;2022-07-29T04:11:23;13.90;99.90
17797;DHT22;55596;53.554;9.916;2022-07-29T04:13:50;14.30;99.90
17797;DHT22;55596;53.554;9.916;2022-07-29T04:16:17;14.00;99.90
17797;DHT22;55596;53.554;9.916;2022-07-29T04:18:44;13.90;99.90
17797;DHT22;55596;53.554;9.916;2022-07-29T04:21:11;13.90;99.90
17797;DHT22;55596;53.554;9.916;2022-07-29T04:23:38;13.90;99.90
17797;DHT22;55596;53.554;9.916;2022-07-29T04:26:04;14.00;99.90
17797;DHT22;55596;53.554;9.916;2022-07-29T04:28:36;14.10;99.90
17797;DHT22;55596;53.554;9.916;2022-07-29T04:31:05;15.90;99.90
17797;DHT22;55596;53.554;9.916;2022-07-29T04:33:32;14.30;99.90
17797;DHT22;55596;53.554;9.916;2022-07-29T04:35:59;14.10;99.90
17797;DHT22;55596;53.554;9.916;2022-07-29T04:38:26;14.30;99.90
17797;DHT22;55596;53.554;9.916;2022-07-29T04:40:52;14.40;99.90
17797;DHT22;55596;53.554;9.916;2022-07-29T04:43:19;14.30;99.90
17797;DHT22;55596;53.554;9.916;2022-07-29T04:45:48;14.80;99.90
17797;DHT22;55596;53.554;9.916;2022-07-29T04:48:14;14.50;99.90
17797;DHT22;55596;53.554;9.916;2022-07-29T04:50:41;14.60;99.90
17797;DHT22;55596;53.554;9.916;2022-07-29T04:53:09;14.70;99.90
17797;DHT22;55596;53.554;9.916;2022-07-29T04:55:36;14.70;99.90
17797;DHT22;55596;53.554;9.916;2022-07-29T04:58:03;15.80;99.90
17797;DHT22;55596;53.554;9.916;2022-07-29T05:00:30;14.70;99.90
17797;DHT22;55596;53.554;9.916;2022-07-29T05:02:58;14.70;99.90
17797;DHT22;55596;53.554;9.916;2022-07-29T05:05:25;14.90;99.90
17797;DHT22;55596;53.554;9.916;2022-07-29T05:07:52;14.90;99.90
17797;DHT22;55596;53.554;9.916;2022-07-29T05:10:19;15.10;99.90
17797;DHT22;55596;53.554;9.916;2022-07-29T05:12:46;15.00;99.90
17797;DHT22;55596;53.554;9.916;2022-07-29T05:15:13;15.10;99.90
17797;DHT22;55596;53.554;9.916;2022-07-29T05:17:40;15.20;99.90
17797;DHT22;55596;53.554;9.916;2022-07-29T05:20:09;15.40;99.90
17797;DHT22;55596;53.554;9.916;2022-07-29T05:22:36;15.70;99.90
17797;DHT22;55596;53.554;9.916;2022-07-29T05:25:03;15.50;99.90
17797;DHT22;55596;53.554;9.916;2022-07-29T05:27:31;15.90;99.90
17797;DHT22;55596;53.554;9.916;2022-07-29T05:29:58;16.00;99.90
17797;DHT22;55596;53.554;9.916;2022-07-29T05:32:25;16.20;99.90
17797;DHT22;55596;53.554;9.916;2022-07-29T05:34:52;16.10;99.90
17797;DHT22;55596;53.554;9.916;2022-07-29T05:37:20;16.30;99.90
17797;DHT22;55596;53.554;9.916;2022-07-29T05:39:47;16.80;99.90
17797;DHT22;55596;53.554;9.916;2022-07-29T05:42:14;16.70;99.90
17797;DHT22;55596;53.554;9.916;2022-07-29T05:44:41;16.70;99.90
17797;DHT22;55596;53.554;9.916;2022-07-29T05:47:08;16.50;99.90
17797;DHT22;55596;53.554;9.916;2022-07-29T05:49:35;16.30;99.90
17797;DHT22;55596;53.554;9.916;2022-07-29T05:52:02;16.50;99.90
17797;DHT22;55596;53.554;9.916;2022-07-29T05:54:31;16.70;99.90
17797;DHT22;55596;53.554;9.916;2022-07-29T05:56:58;16.90;99.90
17797;DHT22;55596;53.554;9.916;2022-07-29T05:59:25;17.10;99.90
17797;DHT22;55596;53.554;9.916;2022-07-29T06:01:52;17.10;99.90
17797;DHT22;55596;53.554;9.916;2022-07-29T06:04:19;17.20;99.90
17797;DHT22;55596;53.554;9.916;2022-07-29T06:06:46;17.20;99.90
17797;DHT22;55596;53.554;9.916;2022-07-29T06:09:12;17.60;99.90
17797;DHT22;55596;53.554;9.916;2022-07-29T06:11:41;17.70;99.90
17797;DHT22;55596;53.554;9.916;2022-07-29T06:14:08;18.00;99.90
17797;DHT22;55596;53.554;9.916;2022-07-29T06:16:35;18.10;99.90
17797;DHT22;55596;53.554;9.916;2022-07-29T06:19:02;18.40;99.90
17797;DHT22;55596;53.554;9.916;2022-07-29T06:21:29;18.80;99.90
17797;DHT22;55596;53.554;9.916;2022-07-29T06:23:56;18.80;99.90
17797;DHT22;55596;53.554;9.916;2022-07-29T06:26:23;18.80;99.90
17797;DHT22;55596;53.554;9.916;2022-07-29T06:28:51;18.80;99.90
17797;DHT22;55596;53.554;9.916;2022-07-29T06:31:18;18.90;99.90
17797;DHT22;55596;53.554;9.916;2022-07-29T06:33:45;18.90;99.90
17797;DHT22;55596;53.554;9.916;2022-07-29T06:36:12;18.90;99.90
17797;DHT22;55596;53.554;9.916;2022-07-29T06:38:39;18.90;99.90
17797;DHT22;55596;53.554;9.916;2022-07-29T06:41:08;18.70;99.90
17797;DHT22;55596;53.554;9.916;2022-07-29T06:43:39;18.60;99.90
17797;DHT22;55596;53.554;9.916;2022-07-29T06:46:10;19.00;99.90
17797;DHT22;55596;53.554;9.916;2022-07-29T06:48:38;19.20;99.90
17797;DHT22;55596;53.554;9.916;2022-07-29T06:51:06;19.00;99.90
17797;DHT22;55596;53.554;9.916;2022-07-29T06:53:33;19.30;99.90
17797;DHT22;55596;53.554;9.916;2022-07-29T06:56:01;19.40;99.90
17797;DHT22;55596;53.554;9.916;2022-07-29T06:58:29;19.50;99.90
17797;DHT22;55596;53.554;9.916;2022-07-29T07:00:56;19.40;99.90
17797;DHT22;55596;53.554;9.916;2022-07-29T07:03:25;19.80;99.90
17797;DHT22;55596;53.554;9.916;2022-07-29T07:05:52;19.80;99.90
17797;DHT22;55596;53.554;9.916;2022-07-29T07:08:19;19.70;99.90
17797;DHT22;55596;53.554;9.916;2022-07-29T07:10:47;20.00;99.90
17797;DHT22;55596;53.554;9.916;2022-07-29T07:13:14;20.10;99.90
17797;DHT22;55596;53.554;9.916;2022-07-29T07:15:42;19.90;99.90
17797;DHT22;55596;53.554;9.916;2022-07-29T07:18:09;19.70;99.90
17797;DHT22;55596;53.554;9.916;2022-07-29T07:20:38;20.10;99.90
17797;DHT22;55596;53.554;9.916;2022-07-29T07:23:05;19.80;99.90
17797;DHT22;55596;53.554;9.916;2022-07-29T07:25:32;20.10;99.90
17797;DHT22;55596;53.554;9.916;2022-07-29T07:27:59;19.80;99.90
17797;DHT22;55596;53.554;9.916;2022-07-29T07:30:26;19.70;99.90
17797;DHT22;55596;53.554;9.916;2022-07-29T07:32:53;19.50;99.90
17797;DHT22;55596;53.554;9.916;2022-07-29T07:35:21;19.60;99.90
17797;DHT22;55596;53.554;9.916;2022-07-29T07:37:49;19.50;99.90
17797;DHT22;55596;53.554;9.916;2022-07-29T07:40:16;19.60;99.90
17797;DHT22;55596;53.554;9.916;2022-07-29T07:42:43;19.70;99.90
17797;DHT22;55596;53.554;9.916;2022-07-29T07:45:11;19.80;99.90
17797;DHT22;55596;53.554;9.916;2022-07-29T07:47:38;19.90;99.90
17797;DHT22;55596;53.554;9.916;2022-07-29T07:50:08;20.10;99.90
17797;DHT22;55596;53.554;9.916;2022-07-29T07:52:46;20.20;99.90
17797;DHT22;55596;53.554;9.916;2022-07-29T07:55:14;20.60;99.90
17797;DHT22;55596;53.554;9.916;2022-07-29T07:57:41;20.90;99.90
17797;DHT22;55596;53.554;9.916;2022-07-29T08:00:08;21.00;99.90
17797;DHT22;55596;53.554;9.916;2022-07-29T08:02:35;21.40;99.90
17797;DHT22;55596;53.554;9.916;2022-07-29T08:05:03;21.60;99.90
17797;DHT22;55596;53.554;9.916;2022-07-29T08:07:30;22.10;99.90
17797;DHT22;55596;53.554;9.916;2022-07-29T08:09:56;21.80;99.90
17797;DHT22;55596;53.554;9.916;2022-07-29T08:12:25;22.20;99.90
17797;DHT22;55596;53.554;9.916;2022-07-29T08:14:52;22.00;99.90
17797;DHT22;55596;53.554;9.916;2022-07-29T08:17:19;22.00;99.90
17797;DHT22;55596;53.554;9.916;2022-07-29T08:19:46;21.70;99.90
17797;DHT22;55596;53.554;9.916;2022-07-29T08:22:13;22.00;99.90
17797;DHT22;55596;53.554;9.916;2022-07-29T08:24:40;21.90;99.90
17797;DHT22;55596;53.554;9.916;2022-07-29T08:27:18;22.20;99.90
17797;DHT22;55596;53.554;9.916;2022-07-29T08:29:46;22.40;99.90
17797;DHT22;55596;53.554;9.916;2022-07-29T08:32:13;22.50;99.90
17797;DHT22;55596;53.554;9.916;2022-07-29T08:34:40;22.70;99.90
17797;DHT22;55596;53.554;9.916;2022-07-29T08:37:07;22.50;99.90
17797;DHT22;55596;53.554;9.916;2022-07-29T08:39:34;22.30;99.90
17797;DHT22;55596;53.554;9.916;2022-07-29T08:42:01;22.30;99.90
17797;DHT22;55596;53.554;9.916;2022-07-29T08:44:28;22.30;99.90
17797;DHT22;55596;53.554;9.916;2022-07-29T08:46:57;22.30;99.90
17797;DHT22;55596;53.554;9.916;2022-07-29T08:49:24;22.30;99.90
17797;DHT22;55596;53.554;9.916;2022-07-29T08:51:51;22.30;99.90
17797;DHT22;55596;53.554;9.916;2022-07-29T08:54:21;22.50;99.90
17797;DHT22;55596;53.554;9.916;2022-07-29T08:56:50;22.60;99.90
17797;DHT22;55596;53.554;9.916;2022-07-29T08:59:19;22.40;99.90
17797;DHT22;55596;53.554;9.916;2022-07-29T09:01:48;22.60;99.90
17797;DHT22;55596;53.554;9.916;2022-07-29T09:04:19;24.60;99.90
17797;DHT22;55596;53.554;9.916;2022-07-29T09:06:48;23.20;99.90
17797;DHT22;55596;53.554;9.916;2022-07-29T09:09:15;23.40;99.90
17797;DHT22;55596;53.554;9.916;2022-07-29T09:11:43;23.50;99.90
17797;DHT22;55596;53.554;9.916;2022-07-29T09:14:12;23.80;99.90
17797;DHT22;55596;53.554;9.916;2022-07-29T09:16:51;23.60;99.90
17797;DHT22;55596;53.554;9.916;2022-07-29T09:19:26;23.60;99.90
17797;DHT22;55596;53.554;9.916;2022-07-29T09:21:55;23.90;99.90
17797;DHT22;55596;53.554;9.916;2022-07-29T09:24:41;24.30;99.90
17797;DHT22;55596;53.554;9.916;2022-07-29T09:27:19;24.70;99.90
17797;DHT22;55596;53.554;9.916;2022-07-29T09:29:48;24.70;99.90
17797;DHT22;55596;53.554;9.916;2022-07-29T09:32:21;25.20;99.90
17797;DHT22;55596;53.554;9.916;2022-07-29T09:34:49;25.40;99.90
17797;DHT22;55596;53.554;9.916;2022-07-29T09:37:26;25.40;98.80
17797;DHT22;55596;53.554;9.916;2022-07-29T09:39:53;25.40;97.30
17797;DHT22;55596;53.554;9.916;2022-07-29T09:42:28;25.40;97.50
17797;DHT22;55596;53.554;9.916;2022-07-29T09:44:57;25.30;97.90
17797;DHT22;55596;53.554;9.916;2022-07-29T09:47:40;25.30;99.50
17797;DHT22;55596;53.554;9.916;2022-07-29T09:50:09;25.70;96.60
17797;DHT22;55596;53.554;9.916;2022-07-29T09:52:45;25.60;94.20
17797;DHT22;55596;53.554;9.916;2022-07-29T09:55:13;25.60;97.30
17797;DHT22;55596;53.554;9.916;2022-07-29T09:57:40;25.50;93.50
17797;DHT22;55596;53.554;9.916;2022-07-29T10:00:09;25.80;96.20
17797;DHT22;55596;53.554;9.916;2022-07-29T10:02:38;26.00;92.30
17797;DHT22;55596;53.554;9.916;2022-07-29T10:05:15;26.40;92.10
17797;DHT22;55596;53.554;9.916;2022-07-29T10:07:45;26.60;91.00
17797;DHT22;55596;53.554;9.916;2022-07-29T10:10:20;26.70;85.50
17797;DHT22;55596;53.554;9.916;2022-07-29T10:12:55;26.60;87.70
17797;DHT22;55596;53.554;9.916;2022-07-29T10:15:24;26.20;80.40
17797;DHT22;55596;53.554;9.916;2022-07-29T10:17:53;26.20;81.00
17797;DHT22;55596;53.554;9.916;2022-07-29T10:20:20;26.10;83.50
17797;DHT22;55596;53.554;9.916;2022-07-29T10:22:49;26.10;83.10
17797;DHT22;55596;53.554;9.916;2022-07-29T10:25:17;26.30;79.20
17797;DHT22;55596;53.554;9.916;2022-07-29T10:27:45;25.70;90.30
17797;DHT22;55596;53.554;9.916;2022-07-29T10:30:13;25.90;83.80
17797;DHT22;55596;53.554;9.916;2022-07-29T10:35:43;26.10;90.20
17797;DHT22;55596;53.554;9.916;2022-07-29T10:38:36;26.30;80.50
17797;DHT22;55596;53.554;9.916;2022-07-29T10:41:17;26.40;87.40
17797;DHT22;55596;53.554;9.916;2022-07-29T10:43:56;26.00;87.50
17797;DHT22;55596;53.554;9.916;2022-07-29T10:46:25;26.30;82.20
17797;DHT22;55596;53.554;9.916;2022-07-29T10:49:09;26.60;83.10
17797;DHT22;55596;53.554;9.916;2022-07-29T10:51:54;27.00;80.10
17797;DHT22;55596;53.554;9.916;2022-07-29T10:57:17;27.50;85.50
17797;DHT22;55596;53.554;9.916;2022-07-29T10:59:45;27.70;76.10
17797;DHT22;55596;53.554;9.916;2022-07-29T11:02:41;28.30;72.40
17797;DHT22;55596;53.554;9.916;2022-07-29T11:05:09;29.10;81.20
17797;DHT22;55596;53.554;9.916;2022-07-29T11:07:38;29.50;63.80
17797;DHT22;55596;53.554;9.916;2022-07-29T11:10:26;30.00;66.10
17797;DHT22;55596;53.554;9.916;2022-07-29T11:12:54;30.40;67.80
17797;DHT22;55596;53.554;9.916;2022-07-29T11:15:21;30.10;71.20
17797;DHT22;55596;53.554;9.916;2022-07-29T11:18:05;30.20;65.80
17797;DHT22;55596;53.554;9.916;2022-07-29T11:20:40;30.60;62.10
17797;DHT22;55596;53.554;9.916;2022-07-29T11:23:22;31.00;68.50
17797;DHT22;55596;53.554;9.916;2022-07-29T11:26:16;30.70;53.00
17797;DHT22;55596;53.554;9.916;2022-07-29T11:29:00;30.30;65.40
17797;DHT22;55596;53.554;9.916;2022-07-29T11:31:34;30.30;63.80
17797;DHT22;55596;53.554;9.916;2022-07-29T11:34:29;29.90;52.30
17797;DHT22;55596;53.554;9.916;2022-07-29T11:37:17;30.30;59.70
17797;DHT22;55596;53.554;9.916;2022-07-29T11:39:45;30.30;58.90
17797;DHT22;55596;53.554;9.916;2022-07-29T11:42:43;30.30;52.20
17797;DHT22;55596;53.554;9.916;2022-07-29T11:45:14;30.90;56.20
17797;DHT22;55596;53.554;9.916;2022-07-29T11:47:45;31.20;63.30
17797;DHT22;55596;53.554;9.916;2022-07-29T11:50:14;31.20;56.90
17797;DHT22;55596;53.554;9.916;2022-07-29T11:52:43;31.10;58.10
17797;DHT22;55596;53.554;9.916;2022-07-29T11:55:14;31.50;55.30
17797;DHT22;55596;53.554;9.916;2022-07-29T11:57:47;32.40;48.80
17797;DHT22;55596;53.554;9.916;2022-07-29T12:00:28;32.80;49.90
17797;DHT22;55596;53.554;9.916;2022-07-29T12:02:55;34.20;45.80
17797;DHT22;55596;53.554;9.916;2022-07-29T12:05:34;34.80;54.90
17797;DHT22;55596;53.554;9.916;2022-07-29T12:08:05;35.60;54.60
17797;DHT22;55596;53.554;9.916;2022-07-29T12:10:33;36.40;48.40
17797;DHT22;55596;53.554;9.916;2022-07-29T12:13:00;37.10;47.30
17797;DHT22;55596;53.554;9.916;2022-07-29T12:15:28;36.60;44.00
17797;DHT22;55596;53.554;9.916;2022-07-29T12:17:55;37.40;43.40
17797;DHT22;55596;53.554;9.916;2022-07-29T12:20:23;37.50;47.30
17797;DHT22;55596;53.554;9.916;2022-07-29T12:22:50;36.80;46.90
17797;DHT22;55596;53.554;9.916;2022-07-29T12:25:19;36.20;48.00
17797;DHT22;55596;53.554;9.916;2022-07-29T12:27:47;35.90;41.10
17797;DHT22;55596;53.554;9.916;2022-07-29T12:30:15;36.00;42.80
17797;DHT22;55596;53.554;9.916;2022-07-29T12:32:45;36.90;41.50
17797;DHT22;55596;53.554;9.916;2022-07-29T12:35:13;37.30;41.40
17797;DHT22;55596;53.554;9.916;2022-07-29T12:37:43;37.40;44.80
17797;DHT22;55596;53.554;9.916;2022-07-29T12:40:12;36.90;44.00
17797;DHT22;55596;53.554;9.916;2022-07-29T12:42:40;37.40;47.60
17797;DHT22;55596;53.554;9.916;2022-07-29T12:45:07;38.00;43.10
17797;DHT22;55596;53.554;9.916;2022-07-29T12:47:53;38.60;42.90
17797;DHT22;55596;53.554;9.916;2022-07-29T12:50:20;37.90;45.00
17797;DHT22;55596;53.554;9.916;2022-07-29T12:52:47;37.20;45.20
17797;DHT22;55596;53.554;9.916;2022-07-29T12:55:15;36.50;42.80
17797;DHT22;55596;53.554;9.916;2022-07-29T12:57:45;36.40;42.40
17797;DHT22;55596;53.554;9.916;2022-07-29T13:00:13;37.10;47.00
17797;DHT22;55596;53.554;9.916;2022-07-29T13:02:42;37.90;41.10
17797;DHT22;55596;53.554;9.916;2022-07-29T13:05:10;38.00;45.60
17797;DHT22;55596;53.554;9.916;2022-07-29T13:07:38;38.70;44.40
17797;DHT22;55596;53.554;9.916;2022-07-29T13:10:16;39.80;42.20
17797;DHT22;55596;53.554;9.916;2022-07-29T13:13:03;40.60;40.10
17797;DHT22;55596;53.554;9.916;2022-07-29T13:15:30;42.30;40.20
17797;DHT22;55596;53.554;9.916;2022-07-29T13:17:57;43.20;40.00
17797;DHT22;55596;53.554;9.916;2022-07-29T13:20:27;44.60;37.20
17797;DHT22;55596;53.554;9.916;2022-07-29T13:22:55;44.90;36.30
17797;DHT22;55596;53.554;9.916;2022-07-29T13:25:27;45.50;35.90
17797;DHT22;55596;53.554;9.916;2022-07-29T13:27:54;45.80;34.40
17797;DHT22;55596;53.554;9.916;2022-07-29T13:30:22;45.40;35.50
17797;DHT22;55596;53.554;9.916;2022-07-29T13:32:49;45.60;33.30
17797;DHT22;55596;53.554;9.916;2022-07-29T13:35:16;45.40;33.50
17797;DHT22;55596;53.554;9.916;2022-07-29T13:37:44;45.60;33.00
17797;DHT22;55596;53.554;9.916;2022-07-29T13:40:12;45.40;33.60
17797;DHT22;55596;53.554;9.916;2022-07-29T13:42:39;44.70;33.90
17797;DHT22;55596;53.554;9.916;2022-07-29T13:45:09;44.80;33.50
17797;DHT22;55596;53.554;9.916;2022-07-29T13:47:37;44.40;34.90
17797;DHT22;55596;53.554;9.916;2022-07-29T13:50:05;44.10;35.00
17797;DHT22;55596;53.554;9.916;2022-07-29T13:52:33;42.50;37.60
17797;DHT22;55596;53.554;9.916;2022-07-29T13:55:01;40.50;40.70
17797;DHT22;55596;53.554;9.916;2022-07-29T13:57:28;39.30;42.70
17797;DHT22;55596;53.554;9.916;2022-07-29T13:59:55;39.00;43.20
17797;DHT22;55596;53.554;9.916;2022-07-29T14:02:22;39.70;43.00
17797;DHT22;55596;53.554;9.916;2022-07-29T14:04:49;40.20;37.00
17797;DHT22;55596;53.554;9.916;2022-07-29T14:07:16;39.70;42.70
17797;DHT22;55596;53.554;9.916;2022-07-29T14:09:43;38.60;43.70
17797;DHT22;55596;53.554;9.916;2022-07-29T14:12:11;34.50;38.80
17797;DHT22;55596;53.554;9.916;2022-07-29T14:14:38;34.40;48.70
17797;DHT22;55596;53.554;9.916;2022-07-29T14:17:05;32.80;46.90
17797;DHT22;55596;53.554;9.916;2022-07-29T14:19:32;31.80;51.90
17797;DHT22;55596;53.554;9.916;2022-07-29T14:22:02;31.30;54.20
17797;DHT22;55596;53.554;9.916;2022-07-29T14:24:30;30.10;55.80
17797;DHT22;55596;53.554;9.916;2022-07-29T14:26:57;29.70;55.30
17797;DHT22;55596;53.554;9.916;2022-07-29T14:29:26;29.40;56.90
17797;DHT22;55596;53.554;9.916;2022-07-29T14:31:53;29.40;57.40
17797;DHT22;55596;53.554;9.916;2022-07-29T14:34:20;29.30;58.00
17797;DHT22;55596;53.554;9.916;2022-07-29T14:36:46;29.10;55.20
17797;DHT22;55596;53.554;9.916;2022-07-29T14:39:13;28.70;54.60
17797;DHT22;55596;53.554;9.916;2022-07-29T14:41:41;29.30;56.00
17797;DHT22;55596;53.554;9.916;2022-07-29T14:44:08;29.40;55.00
17797;DHT22;55596;53.554;9.916;2022-07-29T14:46:37;29.80;57.90
17797;DHT22;55596;53.554;9.916;2022-07-29T14:49:04;29.80;58.70
17797;DHT22;55596;53.554;9.916;2022-07-29T14:51:32;31.00;57.40
17797;DHT22;55596;53.554;9.916;2022-07-29T14:53:59;32.20;54.10
17797;DHT22;55596;53.554;9.916;2022-07-29T14:56:26;33.10;53.80
17797;DHT22;55596;53.554;9.916;2022-07-29T14:58:55;32.60;53.30
17797;DHT22;55596;53.554;9.916;2022-07-29T15:01:22;31.70;55.20
17797;DHT22;55596;53.554;9.916;2022-07-29T15:03:50;30.50;55.90
17797;DHT22;55596;53.554;9.916;2022-07-29T15:06:17;29.90;57.80
17797;DHT22;55596;53.554;9.916;2022-07-29T15:08:44;29.50;54.10
17797;DHT22;55596;53.554;9.916;2022-07-29T15:11:10;29.70;48.60
17797;DHT22;55596;53.554;9.916;2022-07-29T15:13:38;30.80;51.90
17797;DHT22;55596;53.554;9.916;2022-07-29T15:16:05;31.60;53.00
17797;DHT22;55596;53.554;9.916;2022-07-29T15:18:32;31.30;53.70
17797;DHT22;55596;53.554;9.916;2022-07-29T15:21:00;30.10;57.70
17797;DHT22;55596;53.554;9.916;2022-07-29T15:23:27;29.40;58.20
17797;DHT22;55596;53.554;9.916;2022-07-29T15:25:54;28.80;58.20
17797;DHT22;55596;53.554;9.916;2022-07-29T15:28:21;28.40;53.50
17797;DHT22;55596;53.554;9.916;2022-07-29T15:30:48;28.00;51.50
17797;DHT22;55596;53.554;9.916;2022-07-29T15:33:14;27.60;56.20
17797;DHT22;55596;53.554;9.916;2022-07-29T15:35:42;27.60;65.40
17797;DHT22;55596;53.554;9.916;2022-07-29T15:38:10;27.40;63.00
17797;DHT22;55596;53.554;9.916;2022-07-29T15:40:37;27.30;65.40
17797;DHT22;55596;53.554;9.916;2022-07-29T15:43:05;27.70;64.00
17797;DHT22;55596;53.554;9.916;2022-07-29T15:45:35;28.90;62.20
17797;DHT22;55596;53.554;9.916;2022-07-29T15:48:05;30.40;60.20
17797;DHT22;55596;53.554;9.916;2022-07-29T15:50:32;32.30;57.60
17797;DHT22;55596;53.554;9.916;2022-07-29T15:52:59;33.70;54.20
17797;DHT22;55596;53.554;9.916;2022-07-29T15:55:28;33.90;44.00